sensor_id;sensor_type;location;lat;lon;timestamp;pressure;altitude;pressure_sealevel;temperature;humidity
16331;BME280;8275;48.206;16.340;2022-10-31T00:01:44;99801.34;;;18.28;57.32
16331;BME280;8275;48.206;16.340;2022-10-31T00:04:13;99797.78;;;18.28;57.15
16331;BME280;8275;48.206;16.340;2022-10-31T00:06:41;99804.13;;;18.28;57.27
16331;BME280;8275;48.206;16.340;2022-10-31T00:09:11;99790.56;;;18.27;57.08
16331;BME280;8275;48.206;16.340;2022-10-31T00:11:39;99791.69;;;18.26;57.00
16331;BME280;8275;48.206;16.340;2022-10-31T00:14:08;99789.19;;;18.24;57.03
16331;BME280;8275;48.206;16.340;2022-10-31T00:16:37;99792.81;;;18.24;57.05
16331;BME280;8275;48.206;16.340;2022-10-31T00:19:06;99795.56;;;18.24;57.07
16331;BME280;8275;48.206;16.340;2022-10-31T00:21:36;99801.13;;;18.24;56.91
16331;BME280;8275;48.206;16.340;2022-10-31T00:24:06;99792.50;;;18.26;57.03
16331;BME280;8275;48.206;16.340;2022-10-31T00:26:35;99804.13;;;18.28;57.01
16331;BME280;8275;48.206;16.340;2022-10-31T00:29:04;99796.94;;;18.27;56.96
16331;BME280;8275;48.206;16.340;2022-10-31T00:31:32;99804.44;;;18.27;56.86
16331;BME280;8275;48.206;16.340;2022-10-31T00:34:00;99803.59;;;18.26;56.98
16331;BME280;8275;48.206;16.340;2022-10-31T00:36:30;99796.63;;;18.29;56.83
16331;BME280;8275;48.206;16.340;2022-10-31T00:38:59;99797.16;;;18.31;56.97
16331;BME280;8275;48.206;16.340;2022-10-31T00:41:28;99799.66;;;18.32;56.81
16331;BME280;8275;48.206;16.340;2022-10-31T00:43:58;99804.38;;;18.32;56.67
16331;BME280;8275;48.206;16.340;2022-10-31T00:46:26;99809.09;;;18.31;56.76
16331;BME280;8275;48.206;16.340;2022-10-31T00:48:55;99803.53;;;18.31;56.58
16331;BME280;8275;48.206;16.340;2022-10-31T00:51:23;99807.16;;;18.32;56.77
16331;BME280;8275;48.206;16.340;2022-10-31T00:53:51;99802.72;;;18.31;56.59
16331;BME280;8275;48.206;16.340;2022-10-31T00:56:20;99801.91;;;18.30;56.61
16331;BME280;8275;48.206;16.340;2022-10-31T00:58:48;99803.84;;;18.30;56.65
16331;BME280;8275;48.206;16.340;2022-10-31T01:01:18;99802.72;;;18.31;56.60
16331;BME280;8275;48.206;16.340;2022-10-31T01:03:46;99800.78;;;18.31;56.58
16331;BME280;8275;48.206;16.340;2022-10-31T01:06:15;99799.94;;;18.31;56.33
16331;BME280;8275;48.206;16.340;2022-10-31T01:08:43;99798.88;;;18.27;55.99
16331;BME280;8275;48.206;16.340;2022-10-31T01:11:14;99802.53;;;18.22;55.97
16331;BME280;8275;48.206;16.340;2022-10-31T01:13:43;99797.88;;;18.17;56.10
16331;BME280;8275;48.206;16.340;2022-10-31T01:16:15;99794.56;;;18.15;56.17
16331;BME280;8275;48.206;16.340;2022-10-31T01:18:46;99800.69;;;18.12;56.15
16331;BME280;8275;48.206;16.340;2022-10-31T01:21:16;99796.03;;;18.08;56.15
16331;BME280;8275;48.206;16.340;2022-10-31T01:23:45;99797.16;;;18.07;56.43
16331;BME280;8275;48.206;16.340;2022-10-31T01:26:16;99800.19;;;18.05;56.40
16331;BME280;8275;48.206;16.340;2022-10-31T01:28:47;99796.31;;;18.06;56.45
16331;BME280;8275;48.206;16.340;2022-10-31T01:31:17;99796.84;;;18.08;56.60
16331;BME280;8275;48.206;16.340;2022-10-31T01:33:47;99792.66;;;18.11;56.49
16331;BME280;8275;48.206;16.340;2022-10-31T01:36:19;99794.03;;;18.13;56.55
16331;BME280;8275;48.206;16.340;2022-10-31T01:38:48;99796.19;;;18.16;56.51
16331;BME280;8275;48.206;16.340;2022-10-31T01:41:19;99790.38;;;18.18;56.60
16331;BME280;8275;48.206;16.340;2022-10-31T01:43:55;99785.38;;;18.20;56.51
16331;BME280;8275;48.206;16.340;2022-10-31T01:46:27;99793.09;;;18.23;56.33
16331;BME280;8275;48.206;16.340;2022-10-31T01:49:02;99786.41;;;18.24;56.30
16331;BME280;8275;48.206;16.340;2022-10-31T01:51:36;99787.47;;;18.28;56.19
16331;BME280;8275;48.206;16.340;2022-10-31T01:54:07;99784.72;;;18.28;56.15
16331;BME280;8275;48.206;16.340;2022-10-31T01:56:41;99791.91;;;18.29;56.10
16331;BME280;8275;48.206;16.340;2022-10-31T01:59:12;99789.97;;;18.30;56.05
16331;BME280;8275;48.206;16.340;2022-10-31T02:01:42;99782.19;;;18.32;56.21
16331;BME280;8275;48.206;16.340;2022-10-31T02:04:13;99790.19;;;18.33;56.08
16331;BME280;8275;48.206;16.340;2022-10-31T02:06:46;99788.25;;;18.34;56.05
16331;BME280;8275;48.206;16.340;2022-10-31T02:09:17;99789.09;;;18.34;55.92
16331;BME280;8275;48.206;16.340;2022-10-31T02:11:51;99779.63;;;18.35;56.01
16331;BME280;8275;48.206;16.340;2022-10-31T02:14:21;99783.25;;;18.36;55.94
16331;BME280;8275;48.206;16.340;2022-10-31T02:16:50;99776.06;;;18.35;55.91
16331;BME280;8275;48.206;16.340;2022-10-31T02:19:28;99780.25;;;18.32;55.91
16331;BME280;8275;48.206;16.340;2022-10-31T02:22:05;99781.03;;;18.33;55.82
16331;BME280;8275;48.206;16.340;2022-10-31T02:24:53;99778.06;;;18.29;55.80
16331;BME280;8275;48.206;16.340;2022-10-31T02:27:57;99786.41;;;18.24;55.77
16331;BME280;8275;48.206;16.340;2022-10-31T02:30:36;99777.88;;;18.20;55.46
16331;BME280;8275;48.206;16.340;2022-10-31T02:33:21;99779.34;;;18.13;55.37
16331;BME280;8275;48.206;16.340;2022-10-31T02:36:02;99782.47;;;18.06;55.41
16331;BME280;8275;48.206;16.340;2022-10-31T02:38:46;99777.78;;;18.02;55.54
16331;BME280;8275;48.206;16.340;2022-10-31T02:41:26;99769.75;;;18.00;55.78
16331;BME280;8275;48.206;16.340;2022-10-31T02:44:05;99774.75;;;17.98;55.79
16331;BME280;8275;48.206;16.340;2022-10-31T02:46:39;99773.97;;;17.98;55.90
16331;BME280;8275;48.206;16.340;2022-10-31T02:49:22;99767.28;;;17.99;56.11
16331;BME280;8275;48.206;16.340;2022-10-31T02:51:51;99777.50;;;18.03;56.10
16331;BME280;8275;48.206;16.340;2022-10-31T02:54:22;99774.97;;;18.07;56.02
16331;BME280;8275;48.206;16.340;2022-10-31T02:56:56;99774.38;;;18.10;56.04
16331;BME280;8275;48.206;16.340;2022-10-31T02:59:26;99775.72;;;18.12;55.84
16331;BME280;8275;48.206;16.340;2022-10-31T03:02:25;99775.72;;;18.12;55.82
16331;BME280;8275;48.206;16.340;2022-10-31T03:05:32;99778.22;;;18.14;55.83
16331;BME280;8275;48.206;16.340;2022-10-31T03:08:10;99779.28;;;18.18;55.79
16331;BME280;8275;48.206;16.340;2022-10-31T03:10:43;99775.94;;;18.21;55.79
16331;BME280;8275;48.206;16.340;2022-10-31T03:13:21;99781.19;;;18.22;55.63
16331;BME280;8275;48.206;16.340;2022-10-31T03:15:55;99776.75;;;18.21;55.86
16331;BME280;8275;48.206;16.340;2022-10-31T03:18:29;99778.16;;;18.19;55.71
16331;BME280;8275;48.206;16.340;2022-10-31T03:21:04;99782.91;;;18.18;55.89
16331;BME280;8275;48.206;16.340;2022-10-31T03:23:34;99789.25;;;18.19;55.96
16331;BME280;8275;48.206;16.340;2022-10-31T03:26:07;99786.47;;;18.19;55.76
16331;BME280;8275;48.206;16.340;2022-10-31T03:28:41;99792.00;;;18.19;55.60
16331;BME280;8275;48.206;16.340;2022-10-31T03:31:13;99787.59;;;18.18;55.74
16331;BME280;8275;48.206;16.340;2022-10-31T03:33:44;99794.00;;;18.18;55.60
16331;BME280;8275;48.206;16.340;2022-10-31T03:36:17;99798.69;;;18.18;55.69
16331;BME280;8275;48.206;16.340;2022-10-31T03:38:47;99799.81;;;18.17;55.49
16331;BME280;8275;48.206;16.340;2022-10-31T03:41:20;99795.97;;;18.13;55.34
16331;BME280;8275;48.206;16.340;2022-10-31T03:43:55;99795.75;;;18.09;55.42
16331;BME280;8275;48.206;16.340;2022-10-31T03:46:25;99794.91;;;18.09;55.51
16331;BME280;8275;48.206;16.340;2022-10-31T03:48:55;99792.97;;;18.09;55.43
16331;BME280;8275;48.206;16.340;2022-10-31T03:51:31;99799.09;;;18.06;55.64
16331;BME280;8275;48.206;16.340;2022-10-31T03:54:08;99789.41;;;18.04;55.72
16331;BME280;8275;48.206;16.340;2022-10-31T03:56:44;99786.94;;;18.02;55.58
16331;BME280;8275;48.206;16.340;2022-10-31T03:59:21;99785.59;;;18.00;55.58
16331;BME280;8275;48.206;16.340;2022-10-31T04:01:57;99791.41;;;17.98;55.64
16331;BME280;8275;48.206;16.340;2022-10-31T04:04:26;99792.22;;;17.99;55.62
16331;BME280;8275;48.206;16.340;2022-10-31T04:06:59;99790.28;;;17.99;55.59
16331;BME280;8275;48.206;16.340;2022-10-31T04:09:33;99797.78;;;17.99;55.58
16331;BME280;8275;48.206;16.340;2022-10-31T04:12:05;99795.84;;;17.99;55.43
16331;BME280;8275;48.206;16.340;2022-10-31T04:14:38;99801.38;;;17.99;55.33
16331;BME280;8275;48.206;16.340;2022-10-31T04:17:11;99810.81;;;17.98;55.39
16331;BME280;8275;48.206;16.340;2022-10-31T04:19:41;99808.03;;;17.98;55.19
16331;BME280;8275;48.206;16.340;2022-10-31T04:22:10;99811.41;;;17.95;55.26
16331;BME280;8275;48.206;16.340;2022-10-31T04:24:40;99811.44;;;17.90;54.92
16331;BME280;8275;48.206;16.340;2022-10-31T04:27:11;99810.66;;;17.85;55.21
16331;BME280;8275;48.206;16.340;2022-10-31T04:29:39;99814.28;;;17.80;55.06
16331;BME280;8275;48.206;16.340;2022-10-31T04:32:12;99818.25;;;17.74;55.14
16331;BME280;8275;48.206;16.340;2022-10-31T04:34:41;99812.19;;;17.67;55.06
16331;BME280;8275;48.206;16.340;2022-10-31T04:37:10;99813.91;;;17.63;55.36
16331;BME280;8275;48.206;16.340;2022-10-31T04:39:39;99812.00;;;17.59;55.23
16331;BME280;8275;48.206;16.340;2022-10-31T04:42:07;99812.56;;;17.56;55.31
16331;BME280;8275;48.206;16.340;2022-10-31T04:44:36;99813.13;;;17.52;55.46
16331;BME280;8275;48.206;16.340;2022-10-31T04:47:04;99810.94;;;17.49;55.41
16331;BME280;8275;48.206;16.340;2022-10-31T04:49:32;99808.47;;;17.43;55.50
16331;BME280;8275;48.206;16.340;2022-10-31T04:52:01;99815.69;;;17.39;55.49
16331;BME280;8275;48.206;16.340;2022-10-31T04:54:31;99812.69;;;17.35;55.65
16331;BME280;8275;48.206;16.340;2022-10-31T04:56:59;99818.50;;;17.34;55.84
16331;BME280;8275;48.206;16.340;2022-10-31T04:59:27;99829.56;;;17.34;55.88
16331;BME280;8275;48.206;16.340;2022-10-31T05:01:56;99823.78;;;17.35;55.91
16331;BME280;8275;48.206;16.340;2022-10-31T05:04:24;99815.16;;;17.37;55.78
16331;BME280;8275;48.206;16.340;2022-10-31T05:06:52;99825.16;;;17.38;55.99
16331;BME280;8275;48.206;16.340;2022-10-31T05:09:21;99821.25;;;17.39;55.89
16331;BME280;8275;48.206;16.340;2022-10-31T05:11:51;99816.25;;;17.41;56.19
16331;BME280;8275;48.206;16.340;2022-10-31T05:14:19;99822.88;;;17.45;56.15
16331;BME280;8275;48.206;16.340;2022-10-31T05:16:47;99822.59;;;17.46;56.23
16331;BME280;8275;48.206;16.340;2022-10-31T05:19:16;99822.00;;;17.49;56.28
16331;BME280;8275;48.206;16.340;2022-10-31T05:21:44;99820.03;;;17.50;56.32
16331;BME280;8275;48.206;16.340;2022-10-31T05:24:12;99822.59;;;17.51;56.35
16331;BME280;8275;48.206;16.340;2022-10-31T05:26:41;99819.22;;;17.54;56.22
16331;BME280;8275;48.206;16.340;2022-10-31T05:29:10;99822.56;;;17.57;56.27
16331;BME280;8275;48.206;16.340;2022-10-31T05:31:39;99817.81;;;17.57;56.14
16331;BME280;8275;48.206;16.340;2022-10-31T05:34:07;99821.94;;;17.60;56.16
16331;BME280;8275;48.206;16.340;2022-10-31T05:36:35;99817.78;;;17.62;56.08
16331;BME280;8275;48.206;16.340;2022-10-31T05:39:04;99824.16;;;17.63;56.08
16331;BME280;8275;48.206;16.340;2022-10-31T05:41:33;99817.47;;;17.64;56.11
16331;BME280;8275;48.206;16.340;2022-10-31T05:44:01;99823.84;;;17.64;56.19
16331;BME280;8275;48.206;16.340;2022-10-31T05:46:31;99825.53;;;17.65;56.19
16331;BME280;8275;48.206;16.340;2022-10-31T05:49:00;99828.81;;;17.67;56.14
16331;BME280;8275;48.206;16.340;2022-10-31T05:51:29;99824.66;;;17.70;56.22
16331;BME280;8275;48.206;16.340;2022-10-31T05:53:57;99823.53;;;17.71;56.14
16331;BME280;8275;48.206;16.340;2022-10-31T05:56:25;99819.66;;;17.72;56.02
16331;BME280;8275;48.206;16.340;2022-10-31T05:58:54;99823.78;;;17.74;56.10
16331;BME280;8275;48.206;16.340;2022-10-31T06:01:22;99837.88;;;17.78;56.11
16331;BME280;8275;48.206;16.340;2022-10-31T06:03:52;99831.22;;;17.79;56.07
16331;BME280;8275;48.206;16.340;2022-10-31T06:06:21;99834.84;;;17.79;56.12
16331;BME280;8275;48.206;16.340;2022-10-31T06:08:49;99836.19;;;17.82;55.94
16331;BME280;8275;48.206;16.340;2022-10-31T06:11:17;99842.53;;;17.82;55.96
16331;BME280;8275;48.206;16.340;2022-10-31T06:13:46;99843.91;;;17.85;56.05
16331;BME280;8275;48.206;16.340;2022-10-31T06:16:14;99840.03;;;17.86;55.99
16331;BME280;8275;48.206;16.340;2022-10-31T06:18:42;99850.28;;;17.85;55.99
16331;BME280;8275;48.206;16.340;2022-10-31T06:21:12;99861.06;;;17.87;56.05
16331;BME280;8275;48.206;16.340;2022-10-31T06:23:45;99856.09;;;17.89;55.95
16331;BME280;8275;48.206;16.340;2022-10-31T06:26:13;99858.81;;;17.94;55.89
16331;BME280;8275;48.206;16.340;2022-10-31T06:28:41;99854.34;;;17.98;55.86
16331;BME280;8275;48.206;16.340;2022-10-31T06:31:10;99858.19;;;18.02;55.71
16331;BME280;8275;48.206;16.340;2022-10-31T06:33:40;99866.75;;;18.05;55.83
16331;BME280;8275;48.206;16.340;2022-10-31T06:36:09;99856.19;;;18.07;55.72
16331;BME280;8275;48.206;16.340;2022-10-31T06:38:39;99860.63;;;18.08;55.63
16331;BME280;8275;48.206;16.340;2022-10-31T06:41:07;99864.22;;;18.09;55.68
16331;BME280;8275;48.206;16.340;2022-10-31T06:43:36;99859.53;;;18.09;55.79
16331;BME280;8275;48.206;16.340;2022-10-31T06:46:05;99870.63;;;18.09;55.61
16331;BME280;8275;48.206;16.340;2022-10-31T06:48:33;99868.38;;;18.11;55.76
16331;BME280;8275;48.206;16.340;2022-10-31T06:51:02;99859.44;;;18.14;55.84
16331;BME280;8275;48.206;16.340;2022-10-31T06:53:31;99856.94;;;18.18;55.84
16331;BME280;8275;48.206;16.340;2022-10-31T06:56:00;99858.00;;;18.22;55.77
16331;BME280;8275;48.206;16.340;2022-10-31T06:58:29;99867.69;;;18.24;55.75
16331;BME280;8275;48.206;16.340;2022-10-31T07:00:59;99862.09;;;18.30;55.69
16331;BME280;8275;48.206;16.340;2022-10-31T07:03:28;99876.72;;;18.35;55.56
16331;BME280;8275;48.206;16.340;2022-10-31T07:05:57;99873.38;;;18.38;55.61
16331;BME280;8275;48.206;16.340;2022-10-31T07:08:26;99874.22;;;18.39;55.50
16331;BME280;8275;48.206;16.340;2022-10-31T07:10:57;99865.88;;;18.39;55.53
16331;BME280;8275;48.206;16.340;2022-10-31T07:13:27;99877.81;;;18.39;55.25
16331;BME280;8275;48.206;16.340;2022-10-31T07:16:00;99882.53;;;18.39;55.40
16331;BME280;8275;48.206;16.340;2022-10-31T07:18:29;99878.34;;;18.41;55.40
16331;BME280;8275;48.206;16.340;2022-10-31T07:20:58;99877.50;;;18.41;55.29
16331;BME280;8275;48.206;16.340;2022-10-31T07:23:26;99880.81;;;18.43;55.31
16331;BME280;8275;48.206;16.340;2022-10-31T07:25:56;99878.34;;;18.41;55.27
16331;BME280;8275;48.206;16.340;2022-10-31T07:28:25;99865.56;;;18.40;55.18
16331;BME280;8275;48.206;16.340;2022-10-31T07:30:57;99878.91;;;18.38;55.16
16331;BME280;8275;48.206;16.340;2022-10-31T07:33:25;99880.06;;;18.37;55.17
16331;BME280;8275;48.206;16.340;2022-10-31T07:35:54;99881.69;;;18.38;55.23
16331;BME280;8275;48.206;16.340;2022-10-31T07:38:22;99890.84;;;18.39;55.14
16331;BME280;8275;48.206;16.340;2022-10-31T07:40:52;99889.72;;;18.40;55.29
16331;BME280;8275;48.206;16.340;2022-10-31T07:43:20;99887.19;;;18.43;55.32
16331;BME280;8275;48.206;16.340;2022-10-31T07:45:50;99882.44;;;18.49;55.46
16331;BME280;8275;48.206;16.340;2022-10-31T07:48:21;99885.13;;;18.59;55.50
16331;BME280;8275;48.206;16.340;2022-10-31T07:50:49;99888.31;;;18.71;55.47
16331;BME280;8275;48.206;16.340;2022-10-31T07:53:18;99888.75;;;18.83;55.53
16331;BME280;8275;48.206;16.340;2022-10-31T07:55:46;99891.38;;;18.93;55.38
16331;BME280;8275;48.206;16.340;2022-10-31T07:58:16;99887.44;;;18.99;55.20
16331;BME280;8275;48.206;16.340;2022-10-31T08:00:46;99897.03;;;19.07;54.92
16331;BME280;8275;48.206;16.340;2022-10-31T08:03:17;99890.91;;;19.10;54.69
16331;BME280;8275;48.206;16.340;2022-10-31T08:05:47;99885.56;;;19.13;54.64
16331;BME280;8275;48.206;16.340;2022-10-31T08:08:15;99890.25;;;19.18;54.66
16331;BME280;8275;48.206;16.340;2022-10-31T08:10:44;99890.25;;;19.18;54.44
16331;BME280;8275;48.206;16.340;2022-10-31T08:13:13;99883.25;;;19.20;54.53
16331;BME280;8275;48.206;16.340;2022-10-31T08:15:42;99885.75;;;19.22;54.33
16331;BME280;8275;48.206;16.340;2022-10-31T08:18:13;99886.59;;;19.22;54.11
16331;BME280;8275;48.206;16.340;2022-10-31T08:20:42;99886.28;;;19.24;54.22
16331;BME280;8275;48.206;16.340;2022-10-31T08:23:13;99888.75;;;19.25;54.00
16331;BME280;8275;48.206;16.340;2022-10-31T08:25:41;99881.25;;;19.26;54.23
16331;BME280;8275;48.206;16.340;2022-10-31T08:28:11;99883.72;;;19.27;54.13
16331;BME280;8275;48.206;16.340;2022-10-31T08:30:40;99888.69;;;19.30;54.18
16331;BME280;8275;48.206;16.340;2022-10-31T08:33:12;99880.03;;;19.32;54.34
16331;BME280;8275;48.206;16.340;2022-10-31T08:35:41;99878.28;;;19.41;54.22
16331;BME280;8275;48.206;16.340;2022-10-31T08:38:12;99878.84;;;19.43;53.90
16331;BME280;8275;48.206;16.340;2022-10-31T08:40:41;99882.72;;;19.42;53.80
16331;BME280;8275;48.206;16.340;2022-10-31T08:43:12;99870.50;;;19.43;53.80
16331;BME280;8275;48.206;16.340;2022-10-31T08:45:42;99881.00;;;19.46;53.99
16331;BME280;8275;48.206;16.340;2022-10-31T08:48:13;99871.22;;;19.48;53.99
16331;BME280;8275;48.206;16.340;2022-10-31T08:50:42;99873.09;;;19.53;53.90
16331;BME280;8275;48.206;16.340;2022-10-31T08:53:15;99873.88;;;19.58;54.01
16331;BME280;8275;48.206;16.340;2022-10-31T08:55:45;99864.63;;;19.63;53.81
16331;BME280;8275;48.206;16.340;2022-10-31T08:58:19;99867.03;;;19.70;53.68
16331;BME280;8275;48.206;16.340;2022-10-31T09:00:49;99872.19;;;19.76;53.84
16331;BME280;8275;48.206;16.340;2022-10-31T09:03:21;99865.53;;;19.77;53.44
16331;BME280;8275;48.206;16.340;2022-10-31T09:05:50;99871.38;;;19.76;53.59
16331;BME280;8275;48.206;16.340;2022-10-31T09:08:24;99878.59;;;19.77;53.43
16331;BME280;8275;48.206;16.340;2022-10-31T09:10:56;99874.38;;;19.79;53.59
16331;BME280;8275;48.206;16.340;2022-10-31T09:13:24;99874.81;;;19.86;53.57
16331;BME280;8275;48.206;16.340;2022-10-31T09:15:56;99870.00;;;19.92;53.48
16331;BME280;8275;48.206;16.340;2022-10-31T09:18:25;99876.31;;;19.97;53.20
16331;BME280;8275;48.206;16.340;2022-10-31T09:20:57;99879.09;;;19.97;53.25
16331;BME280;8275;48.206;16.340;2022-10-31T09:23:27;99879.69;;;19.94;53.03
16331;BME280;8275;48.206;16.340;2022-10-31T09:26:00;99879.47;;;19.91;53.05
16331;BME280;8275;48.206;16.340;2022-10-31T09:28:28;99876.91;;;19.94;52.97
16331;BME280;8275;48.206;16.340;2022-10-31T09:30:58;99875.72;;;20.00;53.02
16331;BME280;8275;48.206;16.340;2022-10-31T09:33:27;99877.78;;;20.08;53.17
16331;BME280;8275;48.206;16.340;2022-10-31T09:35:57;99873.81;;;20.14;52.80
16331;BME280;8275;48.206;16.340;2022-10-31T09:38:27;99879.53;;;20.23;52.74
16331;BME280;8275;48.206;16.340;2022-10-31T09:41:06;99878.59;;;20.27;52.60
16331;BME280;8275;48.206;16.340;2022-10-31T09:43:45;99878.81;;;20.31;52.86
16331;BME280;8275;48.206;16.340;2022-10-31T09:46:24;99878.53;;;20.33;52.62
16331;BME280;8275;48.206;16.340;2022-10-31T09:49:19;99878.81;;;20.31;52.79
16331;BME280;8275;48.206;16.340;2022-10-31T09:51:57;99869.84;;;20.34;52.87
16331;BME280;8275;48.206;16.340;2022-10-31T09:54:38;99874.50;;;20.39;52.55
16331;BME280;8275;48.206;16.340;2022-10-31T09:57:14;99875.25;;;20.44;52.92
16331;BME280;8275;48.206;16.340;2022-10-31T09:59:44;99866.50;;;20.51;52.45
16331;BME280;8275;48.206;16.340;2022-10-31T10:02:20;99877.53;;;20.56;52.46
16331;BME280;8275;48.206;16.340;2022-10-31T10:04:56;99870.50;;;20.58;52.38
16331;BME280;8275;48.206;16.340;2022-10-31T10:07:39;99869.91;;;20.61;52.34
16331;BME280;8275;48.206;16.340;2022-10-31T10:10:17;99869.91;;;20.61;51.94
16331;BME280;8275;48.206;16.340;2022-10-31T10:13:18;99870.22;;;20.60;51.95
16331;BME280;8275;48.206;16.340;2022-10-31T10:16:03;99864.03;;;20.63;52.27
16331;BME280;8275;48.206;16.340;2022-10-31T10:18:47;99868.47;;;20.64;52.23
16331;BME280;8275;48.206;16.340;2022-10-31T10:21:33;99868.34;;;20.55;52.29
16331;BME280;8275;48.206;16.340;2022-10-31T10:24:22;99875.13;;;20.49;52.23
16331;BME280;8275;48.206;16.340;2022-10-31T10:27:03;99878.84;;;20.45;52.27
16331;BME280;8275;48.206;16.340;2022-10-31T10:29:41;99865.22;;;20.43;52.34
16331;BME280;8275;48.206;16.340;2022-10-31T10:32:18;99861.84;;;20.46;52.32
16331;BME280;8275;48.206;16.340;2022-10-31T10:34:51;99858.13;;;20.51;52.43
16331;BME280;8275;48.206;16.340;2022-10-31T10:37:29;99860.00;;;20.55;52.17
16331;BME280;8275;48.206;16.340;2022-10-31T10:40:11;99853.00;;;20.58;52.44
16331;BME280;8275;48.206;16.340;2022-10-31T10:42:45;99852.06;;;20.62;52.20
16331;BME280;8275;48.206;16.340;2022-10-31T10:45:37;99854.22;;;20.65;51.85
16331;BME280;8275;48.206;16.340;2022-10-31T10:48:30;99845.88;;;20.65;51.94
16331;BME280;8275;48.206;16.340;2022-10-31T10:51:02;99844.75;;;20.66;52.01
16331;BME280;8275;48.206;16.340;2022-10-31T10:53:46;99841.13;;;20.66;52.06
16331;BME280;8275;48.206;16.340;2022-10-31T10:56:58;99841.97;;;20.66;52.13
16331;BME280;8275;48.206;16.340;2022-10-31T10:59:31;99840.19;;;20.70;51.98
16331;BME280;8275;48.206;16.340;2022-10-31T11:01:59;99839.91;;;20.72;51.85
16331;BME280;8275;48.206;16.340;2022-10-31T11:04:33;99839.91;;;20.72;51.73
16331;BME280;8275;48.206;16.340;2022-10-31T11:07:04;99839.59;;;20.73;51.67
16331;BME280;8275;48.206;16.340;2022-10-31T11:09:35;99838.25;;;20.71;51.96
16331;BME280;8275;48.206;16.340;2022-10-31T11:12:08;99835.78;;;20.69;51.67
16331;BME280;8275;48.206;16.340;2022-10-31T11:14:46;99835.56;;;20.66;52.13
16331;BME280;8275;48.206;16.340;2022-10-31T11:17:26;99834.03;;;20.60;51.84
16331;BME280;8275;48.206;16.340;2022-10-31T11:20:16;99830.00;;;20.52;51.74
16331;BME280;8275;48.206;16.340;2022-10-31T11:23:03;99831.22;;;20.46;52.12
16331;BME280;8275;48.206;16.340;2022-10-31T11:25:32;99830.91;;;20.48;52.26
16331;BME280;8275;48.206;16.340;2022-10-31T11:28:02;99830.72;;;20.44;52.30
16331;BME280;8275;48.206;16.340;2022-10-31T11:30:43;99826.06;;;20.40;52.33
16331;BME280;8275;48.206;16.340;2022-10-31T11:33:19;99823.81;;;20.42;52.24
16331;BME280;8275;48.206;16.340;2022-10-31T11:35:49;99829.88;;;20.44;52.02
16331;BME280;8275;48.206;16.340;2022-10-31T11:38:29;99823.50;;;20.43;52.06
16331;BME280;8275;48.206;16.340;2022-10-31T11:41:10;99826.28;;;20.43;52.01
16331;BME280;8275;48.206;16.340;2022-10-31T11:43:47;99827.63;;;20.46;52.15
16331;BME280;8275;48.206;16.340;2022-10-31T11:46:39;99818.75;;;20.44;52.02
16331;BME280;8275;48.206;16.340;2022-10-31T11:49:16;99807.63;;;20.44;52.22
16331;BME280;8275;48.206;16.340;2022-10-31T11:51:49;99810.91;;;20.46;52.12
16331;BME280;8275;48.206;16.340;2022-10-31T11:54:23;99813.38;;;20.47;52.07
16331;BME280;8275;48.206;16.340;2022-10-31T11:56:53;99812.47;;;20.52;52.10
16331;BME280;8275;48.206;16.340;2022-10-31T11:59:26;99808.03;;;20.51;52.09
16331;BME280;8275;48.206;16.340;2022-10-31T12:01:59;99807.22;;;20.50;51.85
16331;BME280;8275;48.206;16.340;2022-10-31T12:04:36;99802.25;;;20.47;52.18
16331;BME280;8275;48.206;16.340;2022-10-31T12:07:06;99802.88;;;20.44;52.00
16331;BME280;8275;48.206;16.340;2022-10-31T12:09:36;99802.34;;;20.42;52.18
16331;BME280;8275;48.206;16.340;2022-10-31T12:12:39;99803.28;;;20.38;52.18
16331;BME280;8275;48.206;16.340;2022-10-31T12:15:32;99804.72;;;20.35;52.25
16331;BME280;8275;48.206;16.340;2022-10-31T12:18:39;99795.84;;;20.33;52.28
16331;BME280;8275;48.206;16.340;2022-10-31T12:21:27;99796.69;;;20.34;52.29
16331;BME280;8275;48.206;16.340;2022-10-31T12:24:13;99795.84;;;20.33;52.33
16331;BME280;8275;48.206;16.340;2022-10-31T12:27:00;99795.31;;;20.31;51.97
16331;BME280;8275;48.206;16.340;2022-10-31T12:29:59;99793.06;;;20.33;52.40
16331;BME280;8275;48.206;16.340;2022-10-31T12:32:43;99788.22;;;20.39;52.13
16331;BME280;8275;48.206;16.340;2022-10-31T12:35:26;99784.84;;;20.42;52.02
16331;BME280;8275;48.206;16.340;2022-10-31T12:41:14;99784.44;;;20.48;51.98
16331;BME280;8275;48.206;16.340;2022-10-31T12:43:55;99786.91;;;20.50;51.73
16331;BME280;8275;48.206;16.340;2022-10-31T12:46:44;99787.53;;;20.47;51.59
16331;BME280;8275;48.206;16.340;2022-10-31T12:49:47;99780.06;;;20.42;51.64
16331;BME280;8275;48.206;16.340;2022-10-31T12:52:41;99784.84;;;20.42;51.78
16331;BME280;8275;48.206;16.340;2022-10-31T12:55:28;99782.16;;;20.37;52.02
16331;BME280;8275;48.206;16.340;2022-10-31T12:58:05;99788.03;;;20.35;51.74
16331;BME280;8275;48.206;16.340;2022-10-31T13:00:41;99780.81;;;20.34;51.67
16331;BME280;8275;48.206;16.340;2022-10-31T13:03:25;99781.41;;;20.31;52.00
16331;BME280;8275;48.206;16.340;2022-10-31T13:05:59;99783.16;;;20.27;51.85
16331;BME280;8275;48.206;16.340;2022-10-31T13:08:38;99781.59;;;20.21;52.06
16331;BME280;8275;48.206;16.340;2022-10-31T13:11:13;99778.91;;;20.16;51.97
16331;BME280;8275;48.206;16.340;2022-10-31T13:13:50;99777.56;;;20.13;51.92
16331;BME280;8275;48.206;16.340;2022-10-31T13:16:25;99773.34;;;20.16;52.20
16331;BME280;8275;48.206;16.340;2022-10-31T13:19:01;99775.28;;;20.15;52.00
16331;BME280;8275;48.206;16.340;2022-10-31T13:21:39;99770.88;;;20.14;51.90
16331;BME280;8275;48.206;16.340;2022-10-31T13:24:22;99770.97;;;20.09;52.07
16331;BME280;8275;48.206;16.340;2022-10-31T13:26:54;99772.41;;;20.07;51.86
16331;BME280;8275;48.206;16.340;2022-10-31T13:29:30;99767.97;;;20.06;52.07
16331;BME280;8275;48.206;16.340;2022-10-31T13:32:03;99766.31;;;20.05;52.14
16331;BME280;8275;48.206;16.340;2022-10-31T13:34:36;99758.59;;;20.02;51.94
16331;BME280;8275;48.206;16.340;2022-10-31T13:37:15;99758.91;;;20.00;52.00